Terminal Aerodrome Forecast
Issued by NWS

Current Version | Previous Version | Text Only | Print | Product List | Glossary Off
Versions: 1 2 3 4 5 6 7 8 9 10 11 12 13 14 15 16 17 18 19 20 21 22

627
FTUS41 KILN 230540
TAFLCK
TAF
KLCK 230540Z 2306/2406 04009KT P6SM VCSH OVC090
     FM230900 03010KT 5SM -SHRA BR OVC035
     FM231300 03011KT 5SM -SHRA BR OVC015
     FM231900 03011KT 5SM BR VCSH OVC008
     FM240000 01006KT P6SM OVC008=

USA.gov is the U.S. government's official web portal to all federal, state and local government web resources and services.